Time;durP1;ratioP1;P1;durP2;ratioP2;P2;SDS_P1;SDS_P2;PMS_P1;PMS_P2;Temp;Humidity;BMP_temperature;BMP_pressure;BME280_temperature;BME280_humidity;BME280_pressure;Samples;Min_cycle;Max_cycle;Signal;HPM_P1;HPM_P2
2023/10/25 00:01:54;;;;;;;7.97;3.17;;;8.60;99.90;;;;;;5024042;28;20018;-63
2023/10/25 00:04:19;;;;;;;9.85;3.53;;;8.70;99.90;;;;;;5024284;28;20560;-63
2023/10/25 00:06:45;;;;;;;15.80;4.20;;;8.80;99.90;;;;;;5023229;28;20026;-63
2023/10/25 00:09:10;;;;;;;10.68;3.97;;;8.70;99.90;;;;;;5022801;28;20359;-63
2023/10/25 00:11:36;;;;;;;11.15;3.70;;;8.70;99.90;;;;;;5015317;28;20026;-63
2023/10/25 00:14:03;;;;;;;9.85;3.83;;;8.70;99.90;;;;;;5021152;28;20058;-63
2023/10/25 00:16:29;;;;;;;9.13;3.53;;;8.60;99.90;;;;;;5024144;28;20021;-63
2023/10/25 00:18:54;;;;;;;11.48;4.00;;;8.50;99.90;;;;;;5022322;28;20017;-63
2023/10/25 00:21:20;;;;;;;9.90;3.40;;;8.60;99.90;;;;;;5023035;28;20448;-63
2023/10/25 00:23:45;;;;;;;8.45;3.47;;;8.50;99.90;;;;;;5020529;28;20485;-63
2023/10/25 00:26:11;;;;;;;11.52;3.97;;;8.50;99.90;;;;;;5024570;28;20044;-63
2023/10/25 00:28:37;;;;;;;11.13;4.03;;;8.50;99.90;;;;;;5022793;28;20029;-63
2023/10/25 00:31:03;;;;;;;8.70;3.70;;;8.50;99.90;;;;;;5023184;28;20030;-63
2023/10/25 00:33:28;;;;;;;8.48;3.40;;;8.50;99.90;;;;;;5019059;28;20026;-63
2023/10/25 00:35:54;;;;;;;9.77;3.58;;;8.50;99.90;;;;;;5022123;28;20040;-63
2023/10/25 00:38:20;;;;;;;11.30;3.65;;;8.50;99.90;;;;;;5024041;28;20423;-63
2023/10/25 00:40:45;;;;;;;10.10;3.85;;;8.40;99.90;;;;;;5021437;28;20025;-63
2023/10/25 00:43:20;;;;;;;10.73;3.63;;;8.40;99.90;;;;;;5015122;28;20038;-63
2023/10/25 00:46:08;;;;;;;9.68;3.50;;;8.30;99.90;;;;;;5021837;28;20155;-64
2023/10/25 00:48:38;;;;;;;13.52;4.20;;;8.20;99.90;;;;;;5020939;28;20022;-63
2023/10/25 00:51:04;;;;;;;11.97;3.80;;;8.10;99.90;;;;;;5024397;28;20025;-63
2023/10/25 00:53:32;;;;;;;7.47;3.13;;;8.10;99.90;;;;;;5020773;28;20022;-63
2023/10/25 00:56:00;;;;;;;11.98;4.75;;;8.00;99.90;;;;;;5022273;28;20025;-63
2023/10/25 00:58:26;;;;;;;14.52;4.00;;;8.00;99.90;;;;;;5022825;28;20165;-63
2023/10/25 01:00:56;;;;;;;12.60;3.78;;;8.00;99.90;;;;;;5002033;28;20594;-63
2023/10/25 01:03:22;;;;;;;9.27;3.95;;;7.90;99.90;;;;;;5024200;28;20433;-63
2023/10/25 01:05:49;;;;;;;9.48;3.60;;;8.00;99.90;;;;;;5020383;28;20025;-63
2023/10/25 01:08:22;;;;;;;10.43;3.83;;;7.90;99.90;;;;;;5004242;28;20037;-63
2023/10/25 01:10:51;;;;;;;10.35;4.47;;;7.80;99.90;;;;;;5022650;28;20037;-63
2023/10/25 01:13:21;;;;;;;11.87;4.27;;;7.70;99.90;;;;;;5018683;28;20481;-63
2023/10/25 01:15:47;;;;;;;11.07;4.18;;;7.70;99.90;;;;;;5020738;28;20032;-63
2023/10/25 01:18:14;;;;;;;12.43;5.57;;;7.70;99.90;;;;;;5022300;28;20025;-63
2023/10/25 01:20:41;;;;;;;14.95;5.43;;;7.60;99.90;;;;;;5020442;28;20026;-63
2023/10/25 01:23:07;;;;;;;12.95;5.47;;;7.50;99.90;;;;;;5012100;28;20495;-63
2023/10/25 01:25:37;;;;;;;18.42;5.30;;;7.50;99.90;;;;;;5020628;28;20022;-64
2023/10/25 01:28:05;;;;;;;12.95;5.28;;;7.40;99.90;;;;;;5021557;28;20404;-64
2023/10/25 01:30:31;;;;;;;13.32;4.72;;;7.50;99.90;;;;;;5021021;28;20033;-64
2023/10/25 01:32:58;;;;;;;12.50;5.20;;;7.50;99.90;;;;;;5001562;28;20053;-64
2023/10/25 01:35:27;;;;;;;14.95;5.55;;;7.50;99.90;;;;;;5004523;28;20412;-64
2023/10/25 01:37:55;;;;;;;11.15;5.35;;;7.50;99.90;;;;;;5020718;28;20457;-64
2023/10/25 01:40:21;;;;;;;17.58;5.43;;;7.50;99.90;;;;;;5020061;28;20109;-64
2023/10/25 01:42:47;;;;;;;12.38;5.20;;;7.40;99.90;;;;;;5018535;28;20479;-64
2023/10/25 01:45:13;;;;;;;19.33;5.82;;;7.40;99.90;;;;;;4999580;28;20056;-64
2023/10/25 01:47:39;;;;;;;11.65;5.18;;;7.40;99.90;;;;;;5002231;28;20034;-64
2023/10/25 01:50:08;;;;;;;11.63;5.05;;;7.30;99.90;;;;;;5015198;28;20061;-64
2023/10/25 01:52:34;;;;;;;12.55;5.50;;;7.20;99.90;;;;;;5015150;28;20084;-64
2023/10/25 01:54:59;;;;;;;19.90;5.53;;;7.10;99.90;;;;;;5021622;28;20083;-65
2023/10/25 01:57:25;;;;;;;12.15;4.95;;;7.10;99.90;;;;;;5018860;28;20405;-65
2023/10/25 01:59:51;;;;;;;16.70;6.03;;;7.00;99.90;;;;;;5015690;28;20048;-65
2023/10/25 02:02:17;;;;;;;18.33;6.53;;;7.00;99.90;;;;;;5005595;28;20470;-65
2023/10/25 02:04:43;;;;;;;16.15;7.07;;;7.10;99.90;;;;;;5003394;28;20499;-65
2023/10/25 02:07:08;;;;;;;18.23;6.45;;;7.20;99.90;;;;;;5018821;28;20034;-65
2023/10/25 02:09:34;;;;;;;17.75;5.57;;;7.30;99.90;;;;;;5019423;28;20034;-65
2023/10/25 02:12:00;;;;;;;13.85;5.65;;;7.40;99.90;;;;;;5010258;28;20056;-65
2023/10/25 02:14:26;;;;;;;11.63;5.25;;;7.50;99.90;;;;;;5022311;28;20046;-65
2023/10/25 02:16:51;;;;;;;15.02;5.80;;;7.60;99.90;;;;;;5001674;28;20376;-64
2023/10/25 02:19:18;;;;;;;14.23;5.30;;;7.50;99.90;;;;;;5023697;28;20060;-64
2023/10/25 02:21:44;;;;;;;12.98;5.03;;;7.60;99.90;;;;;;5002303;28;20155;-64
2023/10/25 02:24:12;;;;;;;16.02;4.57;;;7.70;99.90;;;;;;5024139;28;20116;-64
2023/10/25 02:26:43;;;;;;;12.50;5.47;;;7.70;99.90;;;;;;5019451;28;20029;-64
2023/10/25 02:29:09;;;;;;;11.75;4.85;;;7.80;99.90;;;;;;5020376;28;20083;-64
2023/10/25 02:31:35;;;;;;;14.23;5.00;;;7.80;99.90;;;;;;5025965;28;20102;-64
2023/10/25 02:34:01;;;;;;;15.00;5.18;;;7.90;99.90;;;;;;5018727;28;20079;-64
2023/10/25 02:36:28;;;;;;;15.30;4.68;;;7.80;99.90;;;;;;5022228;28;20469;-61
2023/10/25 02:38:53;;;;;;;12.77;4.40;;;7.90;99.90;;;;;;5005007;28;20026;-61
2023/10/25 02:41:19;;;;;;;12.63;4.47;;;7.80;99.90;;;;;;5019529;28;20492;-61
2023/10/25 02:43:44;;;;;;;12.35;4.32;;;7.90;99.90;;;;;;5019684;28;20054;-61
2023/10/25 02:46:12;;;;;;;9.38;4.45;;;7.90;99.90;;;;;;5021325;28;20044;-61
2023/10/25 02:48:38;;;;;;;10.95;4.25;;;7.90;99.90;;;;;;5019300;28;20022;-61
2023/10/25 02:51:05;;;;;;;10.88;4.47;;;7.90;99.90;;;;;;5021267;28;20033;-61
2023/10/25 02:53:31;;;;;;;9.90;4.28;;;7.90;99.90;;;;;;5019649;28;20025;-61
2023/10/25 02:56:09;;;;;;;10.95;4.15;;;7.90;99.90;;;;;;5020549;28;20026;-61
2023/10/25 02:58:37;;;;;;;11.18;4.25;;;7.90;99.90;;;;;;5016926;28;20038;-61
2023/10/25 03:01:03;;;;;;;10.95;4.40;;;7.90;99.90;;;;;;5021461;28;20018;-61
2023/10/25 03:03:31;;;;;;;9.35;3.90;;;7.90;99.90;;;;;;5017044;28;20041;-61
2023/10/25 03:05:57;;;;;;;11.32;4.40;;;7.90;99.90;;;;;;5021613;28;20026;-61
2023/10/25 03:08:23;;;;;;;9.05;4.35;;;7.80;99.90;;;;;;5018915;28;20080;-62
2023/10/25 03:10:48;;;;;;;12.43;4.57;;;7.80;99.90;;;;;;5020962;28;20032;-61
2023/10/25 03:13:15;;;;;;;9.48;4.13;;;7.80;99.90;;;;;;5022203;28;20030;-61
2023/10/25 03:15:41;;;;;;;11.90;4.43;;;7.80;99.90;;;;;;5020907;28;20137;-61
2023/10/25 03:18:07;;;;;;;12.05;4.88;;;7.80;99.90;;;;;;5018924;28;20022;-61
2023/10/25 03:20:33;;;;;;;13.20;4.90;;;7.80;99.90;;;;;;5022169;28;20430;-61
2023/10/25 03:22:59;;;;;;;16.90;5.07;;;7.70;99.90;;;;;;5000760;28;20034;-62
2023/10/25 03:25:25;;;;;;;11.90;4.93;;;7.80;99.90;;;;;;5003034;28;20037;-61
2023/10/25 03:27:51;;;;;;;11.63;4.82;;;7.90;99.90;;;;;;5021293;28;20033;-61
2023/10/25 03:30:17;;;;;;;13.63;5.22;;;7.80;99.90;;;;;;5018167;28;20034;-61
2023/10/25 03:32:43;;;;;;;12.35;5.25;;;7.80;99.90;;;;;;5021494;28;20044;-61
2023/10/25 03:35:09;;;;;;;11.38;5.00;;;7.80;99.90;;;;;;5018033;28;20742;-61
2023/10/25 03:37:39;;;;;;;13.55;5.25;;;7.80;99.90;;;;;;5022903;28;20053;-61
2023/10/25 03:40:09;;;;;;;12.23;4.53;;;7.90;99.90;;;;;;5023280;28;20123;-61
2023/10/25 03:42:35;;;;;;;13.93;4.75;;;7.80;99.90;;;;;;5025221;28;20280;-61
2023/10/25 03:45:03;;;;;;;11.10;4.95;;;7.80;99.90;;;;;;5021714;28;20042;-64
2023/10/25 03:47:29;;;;;;;12.57;4.45;;;7.80;99.90;;;;;;5024713;28;20053;-64
2023/10/25 03:49:54;;;;;;;11.65;4.97;;;7.80;99.90;;;;;;5023281;28;20120;-64
2023/10/25 03:52:20;;;;;;;11.73;5.45;;;7.70;99.90;;;;;;5023368;28;20034;-64
2023/10/25 03:54:46;;;;;;;11.20;5.22;;;7.70;99.90;;;;;;5024300;28;20022;-64
2023/10/25 03:57:11;;;;;;;11.73;4.70;;;7.70;99.90;;;;;;5021408;28;20025;-64
2023/10/25 03:59:37;;;;;;;12.43;5.13;;;7.70;99.90;;;;;;5023922;28;20029;-64
2023/10/25 04:02:02;;;;;;;9.45;4.20;;;7.60;99.90;;;;;;5024986;28;20030;-64
2023/10/25 04:04:28;;;;;;;12.77;4.80;;;7.60;99.90;;;;;;5023757;28;20034;-64
2023/10/25 04:06:54;;;;;;;11.90;4.55;;;7.70;99.90;;;;;;5022858;28;20048;-64
2023/10/25 04:09:19;;;;;;;10.50;4.78;;;7.70;99.90;;;;;;5015811;28;20171;-64
2023/10/25 04:11:45;;;;;;;16.75;4.95;;;7.70;99.90;;;;;;5025716;28;20409;-64
2023/10/25 04:14:10;;;;;;;11.80;4.68;;;7.70;99.90;;;;;;5014482;28;20473;-63
2023/10/25 04:16:37;;;;;;;11.93;4.22;;;7.70;99.90;;;;;;5003690;28;20601;-65
2023/10/25 04:19:03;;;;;;;14.00;4.40;;;7.70;99.90;;;;;;5004972;28;20047;-64
2023/10/25 04:21:28;;;;;;;11.52;4.53;;;7.70;99.90;;;;;;5023511;28;20060;-64
2023/10/25 04:23:54;;;;;;;10.95;4.82;;;7.80;99.90;;;;;;5024010;28;20504;-64
2023/10/25 04:26:22;;;;;;;15.02;5.15;;;7.70;99.90;;;;;;5021724;28;20037;-64
2023/10/25 04:28:47;;;;;;;11.98;4.78;;;7.70;99.90;;;;;;5009599;28;20121;-64
2023/10/25 04:31:13;;;;;;;11.63;4.65;;;7.70;99.90;;;;;;4995924;28;20064;-64
2023/10/25 04:33:39;;;;;;;13.13;5.18;;;7.60;99.90;;;;;;5010720;28;20029;-64
2023/10/25 04:36:06;;;;;;;11.85;4.53;;;7.60;99.90;;;;;;5019753;28;20018;-64
2023/10/25 04:38:32;;;;;;;14.32;4.97;;;7.60;99.90;;;;;;5010630;28;20032;-64
2023/10/25 04:40:58;;;;;;;10.60;4.57;;;7.60;99.90;;;;;;5015537;28;20030;-64
2023/10/25 04:43:24;;;;;;;11.27;4.78;;;7.70;99.90;;;;;;5025029;28;20048;-64
2023/10/25 04:45:51;;;;;;;13.10;5.13;;;7.60;99.90;;;;;;5035119;28;20026;-64
2023/10/25 04:48:17;;;;;;;12.88;4.93;;;7.60;99.90;;;;;;5022312;28;20022;-64
2023/10/25 04:50:43;;;;;;;11.10;5.30;;;7.50;99.90;;;;;;5018851;28;20048;-64
2023/10/25 04:53:09;;;;;;;11.40;4.25;;;7.60;99.90;;;;;;5026868;28;20042;-64
2023/10/25 04:55:36;;;;;;;11.20;4.88;;;7.60;99.90;;;;;;5012302;28;20025;-64
2023/10/25 04:58:02;;;;;;;12.65;5.07;;;7.60;99.90;;;;;;5017180;28;20018;-64
2023/10/25 05:00:28;;;;;;;17.15;6.22;;;7.60;99.90;;;;;;5012230;28;20030;-64
2023/10/25 05:02:54;;;;;;;14.27;5.85;;;7.60;99.90;;;;;;5018789;28;20033;-64
2023/10/25 05:05:20;;;;;;;13.95;5.47;;;7.50;99.90;;;;;;4999014;28;20022;-64
2023/10/25 05:07:46;;;;;;;15.48;6.03;;;7.60;99.90;;;;;;5022541;28;20093;-63
2023/10/25 05:10:14;;;;;;;14.68;6.35;;;7.60;99.90;;;;;;5010692;28;20080;-64
2023/10/25 05:12:42;;;;;;;17.63;7.03;;;7.60;99.90;;;;;;5001391;28;20065;-64
2023/10/25 05:15:16;;;;;;;17.65;6.22;;;7.60;99.90;;;;;;5011690;28;20033;-63
2023/10/25 05:17:43;;;;;;;15.98;6.45;;;7.60;99.90;;;;;;5012390;28;20029;-63
2023/10/25 05:20:10;;;;;;;12.07;4.90;;;7.60;99.90;;;;;;5001768;28;20029;-63
2023/10/25 05:22:38;;;;;;;15.13;6.90;;;7.60;99.90;;;;;;5021055;28;20034;-63
2023/10/25 05:25:05;;;;;;;19.88;6.72;;;7.60;99.90;;;;;;5022900;28;20021;-63
2023/10/25 05:27:32;;;;;;;17.35;6.88;;;7.60;99.90;;;;;;5021948;28;20029;-63
2023/10/25 05:30:03;;;;;;;17.52;7.35;;;7.60;99.90;;;;;;5020202;28;20104;-63
2023/10/25 05:32:31;;;;;;;14.68;7.00;;;7.70;99.90;;;;;;5022789;28;20033;-63
2023/10/25 05:34:58;;;;;;;14.48;6.30;;;7.70;99.90;;;;;;5001940;28;20481;-63
2023/10/25 05:37:24;;;;;;;16.40;7.32;;;7.70;99.90;;;;;;5000765;28;20037;-63
2023/10/25 05:39:50;;;;;;;19.42;6.63;;;7.70;99.90;;;;;;5015659;28;20029;-63
2023/10/25 05:42:20;;;;;;;14.93;7.22;;;7.70;99.90;;;;;;5000630;28;20025;-63
2023/10/25 05:44:47;;;;;;;14.63;6.70;;;7.70;99.90;;;;;;5018304;28;20380;-64
2023/10/25 05:47:16;;;;;;;15.80;6.95;;;7.70;99.90;;;;;;4997827;28;20070;-64
2023/10/25 05:49:42;;;;;;;13.60;6.78;;;7.80;99.90;;;;;;5021090;28;20038;-64
2023/10/25 05:52:10;;;;;;;17.83;7.28;;;7.80;99.90;;;;;;5020953;28;20389;-64
2023/10/25 05:54:37;;;;;;;13.60;6.30;;;7.80;99.90;;;;;;5019493;28;20021;-63
2023/10/25 05:57:03;;;;;;;15.63;6.97;;;7.90;99.90;;;;;;5018147;28;20021;-63
2023/10/25 05:59:29;;;;;;;15.57;6.57;;;7.80;99.90;;;;;;5014942;28;20461;-64
2023/10/25 06:02:10;;;;;;;13.85;6.60;;;7.90;99.90;;;;;;5018629;28;20033;-64
2023/10/25 06:04:39;;;;;;;;;;;7.90;99.90;;;;;;5015228;28;20373;-64
2023/10/25 06:07:09;;;;;;;17.23;7.60;;;8.00;99.90;;;;;;5019835;28;19996;-64
2023/10/25 06:09:39;;;;;;;16.55;7.03;;;8.00;99.90;;;;;;5020105;28;20047;-63
2023/10/25 06:12:06;;;;;;;15.35;6.72;;;8.00;99.90;;;;;;5016770;28;20072;-64
2023/10/25 06:14:35;;;;;;;18.15;7.50;;;8.10;99.90;;;;;;5014630;28;20038;-64
2023/10/25 06:17:01;;;;;;;16.15;7.07;;;8.10;99.90;;;;;;4998599;28;20053;-62
2023/10/25 06:19:27;;;;;;;14.55;5.15;;;8.10;99.90;;;;;;5000818;28;20350;-61
2023/10/25 06:21:53;;;;;;;15.20;6.97;;;8.30;99.90;;;;;;5020489;28;20516;-61
2023/10/25 06:24:19;;;;;;;16.45;6.93;;;8.40;99.90;;;;;;5014000;28;20025;-61
2023/10/25 06:26:45;;;;;;;17.73;6.60;;;8.50;99.90;;;;;;5017473;28;20026;-61
2023/10/25 06:29:10;;;;;;;15.23;6.05;;;8.60;99.90;;;;;;5007902;28;20029;-61
2023/10/25 06:31:36;;;;;;;15.93;6.38;;;8.70;99.90;;;;;;5020051;28;20121;-61
2023/10/25 06:34:02;;;;;;;12.25;5.53;;;8.60;99.90;;;;;;5018893;28;20382;-62
2023/10/25 06:36:28;;;;;;;13.52;6.43;;;8.60;99.90;;;;;;5021230;28;20057;-62
2023/10/25 06:38:54;;;;;;;15.40;6.60;;;8.60;99.90;;;;;;4996778;28;20030;-62
2023/10/25 06:41:24;;;;;;;16.23;6.15;;;8.60;99.90;;;;;;5019680;28;20056;-62
2023/10/25 06:43:51;;;;;;;16.40;6.88;;;8.60;99.90;;;;;;5019832;28;20064;-62
2023/10/25 06:46:17;;;;;;;13.20;5.95;;;8.50;99.90;;;;;;4999850;28;20424;-62
2023/10/25 06:48:45;;;;;;;16.00;6.38;;;8.60;99.90;;;;;;5021068;28;20025;-62
2023/10/25 06:51:15;;;;;;;15.55;6.10;;;8.70;99.90;;;;;;5018134;28;20034;-62
2023/10/25 06:53:41;;;;;;;14.20;5.80;;;8.70;99.90;;;;;;5001098;28;20045;-62
2023/10/25 06:56:07;;;;;;;16.63;7.07;;;8.70;99.90;;;;;;5019176;28;20022;-62
2023/10/25 06:58:33;;;;;;;16.77;6.55;;;8.70;99.90;;;;;;5017307;28;20030;-62
2023/10/25 07:01:01;;;;;;;14.35;6.13;;;8.70;99.90;;;;;;5011981;28;20026;-62
2023/10/25 07:03:41;;;;;;;18.08;6.97;;;8.70;99.90;;;;;;5001879;28;20021;-62
2023/10/25 07:06:07;;;;;;;16.13;6.13;;;8.70;99.90;;;;;;5020146;28;20021;-62
2023/10/25 07:08:33;;;;;;;16.23;6.10;;;8.60;99.90;;;;;;5017983;28;20022;-62
2023/10/25 07:10:59;;;;;;;13.80;5.30;;;8.70;99.90;;;;;;5018702;28;20048;-62
2023/10/25 07:13:26;;;;;;;15.43;5.05;;;8.70;99.90;;;;;;5022019;28;20360;-62
2023/10/25 07:15:53;;;;;;;14.02;5.25;;;8.90;99.90;;;;;;5003614;28;20030;-62
2023/10/25 07:18:18;;;;;;;17.02;4.93;;;8.80;99.90;;;;;;5024063;28;20045;-62
2023/10/25 07:20:44;;;;;;;11.63;4.97;;;8.90;99.90;;;;;;5021197;28;20101;-62
2023/10/25 07:23:12;;;;;;;13.38;4.25;;;9.00;99.90;;;;;;5022695;28;20029;-62
2023/10/25 07:25:38;;;;;;;12.05;3.83;;;9.10;99.90;;;;;;5013623;28;20029;-63
2023/10/25 07:28:05;;;;;;;10.48;3.38;;;9.20;99.90;;;;;;5006117;28;20029;-64
2023/10/25 07:30:31;;;;;;;7.57;3.22;;;9.40;99.90;;;;;;5019491;28;20029;-64
2023/10/25 07:32:56;;;;;;;14.60;3.75;;;9.40;99.90;;;;;;5023903;28;20026;-64
2023/10/25 07:35:22;;;;;;;9.20;3.10;;;9.60;99.90;;;;;;5021175;28;20145;-64
2023/10/25 07:37:48;;;;;;;11.93;3.70;;;9.60;99.90;;;;;;5022861;28;20025;-64
2023/10/25 07:40:13;;;;;;;10.25;3.53;;;9.70;99.90;;;;;;5022123;28;20040;-64
2023/10/25 07:42:39;;;;;;;7.65;2.85;;;9.80;99.90;;;;;;5020756;28;20053;-64
2023/10/25 07:45:05;;;;;;;9.75;3.10;;;9.90;99.90;;;;;;5023314;28;20500;-64
2023/10/25 07:47:33;;;;;;;8.90;2.95;;;10.00;99.90;;;;;;5020820;28;20030;-64
2023/10/25 07:50:04;;;;;;;9.23;3.00;;;10.10;99.90;;;;;;5022671;28;20231;-64
2023/10/25 07:52:30;;;;;;;10.18;2.70;;;10.20;99.90;;;;;;5022523;28;20042;-64
2023/10/25 07:54:56;;;;;;;11.45;4.22;;;10.50;99.90;;;;;;5023672;28;20480;-64
2023/10/25 07:57:22;;;;;;;8.75;3.00;;;10.60;99.90;;;;;;5001419;28;20037;-64
2023/10/25 07:59:51;;;;;;;9.93;2.95;;;10.70;99.90;;;;;;5021363;28;20040;-64
2023/10/25 08:02:17;;;;;;;7.63;3.00;;;10.80;99.90;;;;;;5019093;28;20021;-64
2023/10/25 08:04:42;;;;;;;10.05;3.22;;;10.90;99.90;;;;;;5004719;28;20372;-67
2023/10/25 08:07:10;;;;;;;10.43;2.85;;;11.00;99.90;;;;;;5019464;28;20025;-63
2023/10/25 08:09:36;;;;;;;13.48;3.00;;;11.10;99.90;;;;;;5016252;28;20025;-63
2023/10/25 08:12:01;;;;;;;9.38;2.83;;;11.20;99.90;;;;;;5021366;28;20096;-63
2023/10/25 08:14:27;;;;;;;6.68;2.60;;;11.10;99.90;;;;;;5023196;28;20092;-63
2023/10/25 08:16:55;;;;;;;10.00;2.53;;;11.10;99.90;;;;;;5020792;28;20113;-63
2023/10/25 08:19:20;;;;;;;10.80;2.70;;;11.20;99.90;;;;;;5022187;28;20026;-63
2023/10/25 08:21:46;;;;;;;10.73;2.83;;;11.20;99.90;;;;;;5019652;28;20037;-63
2023/10/25 08:24:12;;;;;;;9.73;2.50;;;11.30;99.90;;;;;;5020434;28;20088;-63
2023/10/25 08:26:39;;;;;;;8.73;2.70;;;11.20;99.90;;;;;;5020338;28;20021;-63
2023/10/25 08:29:05;;;;;;;8.10;2.20;;;11.20;99.90;;;;;;5019288;28;20106;-63
2023/10/25 08:31:32;;;;;;;5.88;1.80;;;11.20;99.90;;;;;;5022020;28;20357;-63
2023/10/25 08:33:58;;;;;;;7.82;2.13;;;11.20;99.90;;;;;;5019316;28;20390;-63
2023/10/25 08:36:23;;;;;;;7.55;1.98;;;11.20;99.90;;;;;;5022017;28;20033;-63
2023/10/25 08:38:49;;;;;;;5.57;1.90;;;11.20;99.90;;;;;;5002580;28;20248;-63
2023/10/25 08:41:17;;;;;;;11.68;2.50;;;11.20;99.90;;;;;;5020421;28;20033;-63
2023/10/25 08:43:43;;;;;;;7.88;2.78;;;11.30;99.90;;;;;;5021300;28;20435;-63
2023/10/25 08:46:09;;;;;;;9.02;3.00;;;11.20;99.90;;;;;;5018692;28;20064;-63
2023/10/25 08:48:35;;;;;;;9.02;3.30;;;11.20;99.90;;;;;;5015632;28;20393;-63
2023/10/25 08:51:05;;;;;;;10.38;3.30;;;11.20;99.90;;;;;;5021400;28;20074;-63
2023/10/25 08:53:31;;;;;;;;;;;11.10;99.90;;;;;;5020576;28;20211;-63
2023/10/25 08:55:58;;;;;;;6.00;2.13;;;11.40;99.90;;;;;;5021690;28;19966;-63
2023/10/25 08:58:25;;;;;;;7.63;2.10;;;11.50;99.90;;;;;;5018175;28;20026;-63
2023/10/25 09:00:54;;;;;;;7.35;2.45;;;11.60;99.90;;;;;;5020852;28;20022;-63
2023/10/25 09:03:32;;;;;;;4.65;1.83;;;11.80;99.90;;;;;;5019977;28;20056;-63
2023/10/25 09:06:08;;;;;;;10.48;2.03;;;12.00;99.90;;;;;;5021969;28;20135;-63
2023/10/25 09:08:35;;;;;;;6.60;1.83;;;12.20;99.90;;;;;;5020887;28;20068;-64
2023/10/25 09:11:02;;;;;;;5.70;2.00;;;12.50;99.90;;;;;;5018888;28;20034;-63
2023/10/25 09:13:30;;;;;;;5.55;2.00;;;12.70;99.90;;;;;;5021602;28;20042;-63
2023/10/25 09:16:12;;;;;;;5.32;1.80;;;12.90;99.90;;;;;;5020866;28;20025;-63
2023/10/25 09:18:39;;;;;;;6.55;1.92;;;12.80;99.90;;;;;;5021535;28;20326;-63
2023/10/25 09:21:06;;;;;;;7.10;2.28;;;12.80;99.90;;;;;;5017458;28;20815;-63
2023/10/25 09:23:35;;;;;;;7.15;2.00;;;12.70;99.90;;;;;;5019751;28;20026;-63
2023/10/25 09:26:18;;;;;;;7.80;1.85;;;12.60;99.90;;;;;;5020813;28;20164;-63
2023/10/25 09:28:46;;;;;;;5.38;2.00;;;12.40;99.90;;;;;;5018557;28;20406;-63
2023/10/25 09:31:24;;;;;;;6.18;2.00;;;12.30;99.90;;;;;;5018012;28;20038;-63
2023/10/25 09:33:52;;;;;;;5.40;1.60;;;12.20;99.90;;;;;;5016674;28;20095;-63
2023/10/25 09:36:21;;;;;;;7.05;2.00;;;12.10;99.90;;;;;;5018173;28;20065;-63
2023/10/25 09:38:49;;;;;;;5.45;1.70;;;12.10;99.90;;;;;;5021325;28;20397;-63
2023/10/25 09:41:19;;;;;;;4.90;1.63;;;12.00;99.90;;;;;;5017645;28;20026;-63
2023/10/25 09:43:54;;;;;;;5.35;1.50;;;12.00;99.90;;;;;;5001482;28;20522;-63
2023/10/25 09:46:22;;;;;;;5.57;1.55;;;12.00;99.90;;;;;;5020498;28;20090;-63
2023/10/25 09:49:11;;;;;;;5.70;1.92;;;12.10;99.90;;;;;;5018556;28;20495;-63
2023/10/25 09:51:40;;;;;;;6.03;1.88;;;12.10;99.90;;;;;;5015361;28;20026;-63
2023/10/25 09:54:13;;;;;;;7.63;1.95;;;12.10;99.90;;;;;;5018061;28;20083;-63
2023/10/25 09:56:39;;;;;;;4.68;1.67;;;12.10;99.90;;;;;;5013348;28;20096;-63
2023/10/25 09:59:10;;;;;;;6.80;2.20;;;12.10;99.90;;;;;;5018153;28;20108;-63
2023/10/25 10:01:40;;;;;;;5.28;1.52;;;12.00;99.90;;;;;;5019000;28;20385;-63
2023/10/25 10:04:22;;;;;;;6.20;1.75;;;12.00;99.90;;;;;;5017508;28;20204;-63
2023/10/25 10:07:13;;;;;;;5.95;1.60;;;12.00;99.90;;;;;;5013883;28;20381;-63
2023/10/25 10:10:30;;;;;;;6.68;2.15;;;12.00;99.90;;;;;;5017679;28;20109;-63
2023/10/25 10:12:56;;;;;;;5.90;1.80;;;11.80;99.90;;;;;;4999324;28;20477;-63
2023/10/25 10:15:44;;;;;;;11.80;3.55;;;11.80;99.90;;;;;;5019167;28;20036;-63
2023/10/25 10:18:11;;;;;;;14.30;3.53;;;11.80;99.90;;;;;;5018280;28;20094;-63
2023/10/25 10:20:37;;;;;;;17.08;5.00;;;11.80;99.90;;;;;;5017497;28;20033;-63
2023/10/25 10:23:09;;;;;;;10.35;3.30;;;11.80;99.90;;;;;;5020299;28;20033;-63
2023/10/25 10:25:45;;;;;;;7.97;2.40;;;11.70;99.90;;;;;;5018937;28;20428;-63
2023/10/25 10:28:11;;;;;;;7.10;2.30;;;11.80;99.90;;;;;;5015734;28;20028;-63
2023/10/25 10:30:40;;;;;;;6.82;2.25;;;11.80;99.90;;;;;;5016370;28;20038;-63
2023/10/25 10:33:16;;;;;;;7.32;2.47;;;11.80;99.90;;;;;;5018632;28;20079;-63
2023/10/25 10:35:48;;;;;;;9.07;3.00;;;11.80;99.90;;;;;;5020345;28;20498;-63
2023/10/25 10:38:14;;;;;;;10.38;3.28;;;11.80;99.90;;;;;;5018120;28;20021;-63
2023/10/25 10:40:40;;;;;;;8.50;2.50;;;11.60;99.90;;;;;;5018616;28;20022;-63
2023/10/25 10:43:07;;;;;;;8.05;2.90;;;11.50;99.90;;;;;;5020265;28;20030;-63
2023/10/25 10:45:34;;;;;;;7.35;2.90;;;11.30;99.90;;;;;;5016599;28;20045;-63
2023/10/25 10:48:21;;;;;;;8.38;3.03;;;11.20;99.90;;;;;;5019259;28;20067;-63
2023/10/25 10:50:49;;;;;;;9.82;3.03;;;11.00;99.90;;;;;;5018055;28;20022;-63
2023/10/25 10:53:17;;;;;;;11.82;3.30;;;11.00;99.90;;;;;;5018580;28;20072;-63
2023/10/25 10:55:45;;;;;;;8.75;2.90;;;10.90;99.90;;;;;;5019512;28;20041;-61
2023/10/25 10:58:11;;;;;;;7.25;2.78;;;10.90;99.90;;;;;;5016654;28;20022;-61
2023/10/25 11:00:44;;;;;;;9.73;3.33;;;10.80;99.90;;;;;;5015659;28;20077;-61
2023/10/25 11:03:10;;;;;;;8.70;2.92;;;10.80;99.90;;;;;;4998536;28;20396;-61
2023/10/25 11:05:37;;;;;;;9.82;2.92;;;10.80;99.90;;;;;;5017932;28;20105;-61
2023/10/25 11:08:13;;;;;;;6.90;2.72;;;10.80;99.90;;;;;;5018611;28;20120;-61
2023/10/25 11:10:39;;;;;;;9.65;3.30;;;10.80;99.90;;;;;;4990394;28;20052;-61
2023/10/25 11:13:09;;;;;;;7.80;2.78;;;10.90;99.90;;;;;;5019364;28;20037;-61
2023/10/25 11:15:34;;;;;;;9.53;2.67;;;11.00;99.90;;;;;;5019720;28;20029;-61
2023/10/25 11:18:01;;;;;;;6.72;2.20;;;10.90;99.90;;;;;;5007590;28;20036;-61
2023/10/25 11:20:29;;;;;;;7.22;1.92;;;11.00;99.90;;;;;;5018723;28;20546;-61
2023/10/25 11:22:56;;;;;;;6.10;2.35;;;11.00;99.90;;;;;;5009009;28;20037;-61
2023/10/25 11:25:21;;;;;;;6.05;1.98;;;10.90;99.90;;;;;;5017066;28;20033;-61
2023/10/25 11:27:47;;;;;;;6.90;2.00;;;11.00;99.90;;;;;;5020260;28;20109;-61
2023/10/25 11:30:13;;;;;;;6.32;2.15;;;11.00;99.90;;;;;;5014269;28;20035;-61
2023/10/25 11:32:42;;;;;;;10.18;2.33;;;11.00;99.90;;;;;;5019200;28;20033;-61
2023/10/25 11:35:23;;;;;;;8.85;2.50;;;10.90;99.90;;;;;;5009454;28;20086;-61
2023/10/25 11:37:51;;;;;;;6.07;2.10;;;10.90;99.90;;;;;;5014367;28;20037;-61
2023/10/25 11:40:16;;;;;;;9.50;2.30;;;10.90;99.90;;;;;;5017808;28;20143;-62
2023/10/25 11:42:43;;;;;;;7.55;2.20;;;10.90;99.90;;;;;;5019098;28;20116;-62
2023/10/25 11:45:09;;;;;;;6.75;2.80;;;11.00;99.90;;;;;;4999269;28;20058;-62
2023/10/25 11:47:38;;;;;;;8.48;2.83;;;10.90;99.90;;;;;;5018969;28;20052;-62
2023/10/25 11:50:05;;;;;;;6.80;2.30;;;10.90;99.90;;;;;;4999966;28;20083;-62
2023/10/25 11:52:32;;;;;;;8.63;2.70;;;10.90;99.90;;;;;;5000060;28;20120;-62
2023/10/25 11:54:59;;;;;;;8.77;2.50;;;10.80;99.90;;;;;;5019596;28;20104;-62
2023/10/25 11:57:27;;;;;;;8.52;2.65;;;10.80;99.90;;;;;;4999001;28;20026;-62
2023/10/25 11:59:52;;;;;;;8.00;2.65;;;10.70;99.90;;;;;;5020959;28;20384;-62
2023/10/25 12:02:24;;;;;;;7.10;2.10;;;10.70;99.90;;;;;;5023124;28;20046;-62
2023/10/25 12:04:53;;;;;;;7.63;2.40;;;10.70;99.90;;;;;;5022936;28;20021;-62
2023/10/25 12:07:21;;;;;;;6.50;2.50;;;10.70;99.90;;;;;;5023162;28;20167;-63
2023/10/25 12:09:47;;;;;;;9.43;2.95;;;10.70;99.90;;;;;;5021163;28;20168;-63
2023/10/25 12:12:13;;;;;;;9.93;3.20;;;10.60;99.90;;;;;;5022478;28;20128;-63
2023/10/25 12:14:39;;;;;;;11.60;2.95;;;10.60;99.90;;;;;;5025329;28;20363;-63
2023/10/25 12:17:06;;;;;;;7.18;2.47;;;10.50;99.90;;;;;;5013878;28;20411;-63
2023/10/25 12:19:35;;;;;;;9.55;2.95;;;10.60;99.90;;;;;;5019023;28;20045;-63
2023/10/25 12:22:05;;;;;;;10.30;3.20;;;10.50;99.90;;;;;;5022458;28;20112;-64
2023/10/25 12:24:31;;;;;;;11.88;3.58;;;10.50;99.90;;;;;;5002079;28;20028;-64
2023/10/25 12:26:56;;;;;;;9.63;3.03;;;10.50;99.90;;;;;;5022619;28;20057;-63
2023/10/25 12:29:22;;;;;;;8.25;3.28;;;10.50;99.90;;;;;;5019675;28;20620;-63
2023/10/25 12:31:47;;;;;;;9.80;3.38;;;10.50;99.90;;;;;;5022854;28;20020;-63
2023/10/25 12:34:15;;;;;;;9.57;4.07;;;10.50;99.90;;;;;;5020680;28;20375;-63
2023/10/25 12:36:41;;;;;;;11.07;3.28;;;10.50;99.90;;;;;;5022023;28;20109;-63
2023/10/25 12:39:07;;;;;;;8.98;3.20;;;10.50;99.90;;;;;;5022242;28;20104;-63
2023/10/25 12:41:35;;;;;;;9.02;3.28;;;10.50;99.90;;;;;;5019402;28;20334;-64
2023/10/25 12:44:04;;;;;;;10.65;3.28;;;10.50;99.90;;;;;;5019554;28;20112;-64
2023/10/25 12:46:30;;;;;;;9.68;3.58;;;10.50;99.90;;;;;;5021067;28;20392;-64
2023/10/25 12:48:56;;;;;;;8.93;3.65;;;10.40;99.90;;;;;;5021807;28;20052;-64
2023/10/25 12:51:22;;;;;;;12.00;4.07;;;10.40;99.90;;;;;;5019780;28;20022;-64